Weather at La Palma Airport

Public forecast

Using degrees Celsius for public forecast. Weather courtesy of forecast.io.

Current aviation weather report (METAR) for La Palma Airport

Retrieved 2021/09/25 19:00 UTC (43 seconds ago):

GCLA 251900Z 32004KT 9999 VA FEW030 BKN040 FEW045TCU 24/17 Q1018

Aviation forecast (TAF) for La Palma Airport

Retrieved 2021/09/25 15:27 UTC (4 hours ago):

TAF GCLA 251400Z 2515/2615 05006KT 9999 VA SCT030 FEW040TCU TX26/2614Z TN20/2606Z